sensor_id;sensor_type;location;lat;lon;timestamp;pressure;altitude;pressure_sealevel;temperature;humidity
41686;BME280;27370;42.764;23.432;2023-06-22T00:01:55;96054.78;;;16.22;100.00
41686;BME280;27370;42.764;23.432;2023-06-22T00:04:20;96047.00;;;16.20;100.00
41686;BME280;27370;42.764;23.432;2023-06-22T00:06:46;96057.28;;;16.16;100.00
41686;BME280;27370;42.764;23.432;2023-06-22T00:09:12;96051.94;;;16.26;100.00
41686;BME280;27370;42.764;23.432;2023-06-22T00:11:37;96033.88;;;16.15;100.00
41686;BME280;27370;42.764;23.432;2023-06-22T00:14:04;96043.25;;;16.31;100.00
41686;BME280;27370;42.764;23.432;2023-06-22T00:16:31;96049.75;;;16.20;100.00
41686;BME280;27370;42.764;23.432;2023-06-22T00:18:57;96043.38;;;16.11;100.00
41686;BME280;27370;42.764;23.432;2023-06-22T00:21:26;96050.47;;;16.08;100.00
41686;BME280;27370;42.764;23.432;2023-06-22T00:23:52;96043.22;;;16.02;100.00
41686;BME280;27370;42.764;23.432;2023-06-22T00:26:17;96046.97;;;16.08;100.00
41686;BME280;27370;42.764;23.432;2023-06-22T00:28:43;96040.25;;;15.96;100.00
41686;BME280;27370;42.764;23.432;2023-06-22T00:31:08;96044.31;;;16.04;100.00
41686;BME280;27370;42.764;23.432;2023-06-22T00:33:34;96045.34;;;16.10;100.00
41686;BME280;27370;42.764;23.432;2023-06-22T00:35:59;96052.50;;;16.04;100.00
41686;BME280;27370;42.764;23.432;2023-06-22T00:38:25;96050.13;;;16.06;100.00
41686;BME280;27370;42.764;23.432;2023-06-22T00:40:50;96042.03;;;16.03;100.00
41686;BME280;27370;42.764;23.432;2023-06-22T00:43:16;96037.75;;;16.02;100.00
41686;BME280;27370;42.764;23.432;2023-06-22T00:45:41;96048.41;;;16.12;100.00
41686;BME280;27370;42.764;23.432;2023-06-22T00:48:07;96039.31;;;16.32;100.00
41686;BME280;27370;42.764;23.432;2023-06-22T00:50:33;96043.19;;;16.18;100.00
41686;BME280;27370;42.764;23.432;2023-06-22T00:53:07;96054.97;;;16.15;100.00
41686;BME280;27370;42.764;23.432;2023-06-22T00:55:37;96032.19;;;16.05;100.00
41686;BME280;27370;42.764;23.432;2023-06-22T00:58:06;96039.03;;;16.13;100.00
41686;BME280;27370;42.764;23.432;2023-06-22T01:00:36;96049.75;;;16.20;100.00
41686;BME280;27370;42.764;23.432;2023-06-22T01:03:03;96055.69;;;16.32;100.00
41686;BME280;27370;42.764;23.432;2023-06-22T01:05:29;96055.94;;;16.37;100.00
41686;BME280;27370;42.764;23.432;2023-06-22T01:13:44;96039.56;;;16.08;100.00
41686;BME280;27370;42.764;23.432;2023-06-22T01:18:42;96060.28;;;16.06;100.00
41686;BME280;27370;42.764;23.432;2023-06-22T01:21:14;96064.06;;;15.96;100.00
41686;BME280;27370;42.764;23.432;2023-06-22T01:24:23;96061.34;;;15.96;100.00
41686;BME280;27370;42.764;23.432;2023-06-22T01:27:00;96060.34;;;15.89;100.00
41686;BME280;27370;42.764;23.432;2023-06-22T01:29:31;96064.16;;;15.92;100.00
41686;BME280;27370;42.764;23.432;2023-06-22T01:31:59;96065.78;;;15.89;100.00
41686;BME280;27370;42.764;23.432;2023-06-22T01:34:29;96071.16;;;15.93;100.00
41686;BME280;27370;42.764;23.432;2023-06-22T01:36:56;96073.78;;;15.97;100.00
41686;BME280;27370;42.764;23.432;2023-06-22T01:39:23;96072.50;;;16.01;100.00
41686;BME280;27370;42.764;23.432;2023-06-22T01:41:52;96066.88;;;16.08;100.00
41686;BME280;27370;42.764;23.432;2023-06-22T01:44:19;96072.59;;;15.98;100.00
41686;BME280;27370;42.764;23.432;2023-06-22T01:46:46;96057.00;;;15.82;100.00
41686;BME280;27370;42.764;23.432;2023-06-22T01:49:13;96063.16;;;15.70;100.00
41686;BME280;27370;42.764;23.432;2023-06-22T01:51:39;96071.09;;;15.80;100.00
41686;BME280;27370;42.764;23.432;2023-06-22T01:54:06;96073.47;;;15.95;100.00
41686;BME280;27370;42.764;23.432;2023-06-22T01:56:33;96075.09;;;15.92;100.00
41686;BME280;27370;42.764;23.432;2023-06-22T01:59:27;96075.34;;;15.81;100.00
41686;BME280;27370;42.764;23.432;2023-06-22T02:02:14;96065.28;;;15.46;100.00
41686;BME280;27370;42.764;23.432;2023-06-22T02:04:48;96069.56;;;15.47;100.00
41686;BME280;27370;42.764;23.432;2023-06-22T02:07:17;96068.69;;;15.33;100.00
41686;BME280;27370;42.764;23.432;2023-06-22T02:09:46;96070.31;;;15.31;100.00
41686;BME280;27370;42.764;23.432;2023-06-22T02:12:18;96082.00;;;15.31;100.00
41686;BME280;27370;42.764;23.432;2023-06-22T02:14:46;96071.06;;;15.31;100.00
41686;BME280;27370;42.764;23.432;2023-06-22T02:17:12;96080.03;;;15.32;100.00
41686;BME280;27370;42.764;23.432;2023-06-22T02:19:41;96087.53;;;15.28;100.00
41686;BME280;27370;42.764;23.432;2023-06-22T02:22:06;96073.63;;;15.22;100.00
41686;BME280;27370;42.764;23.432;2023-06-22T02:24:32;96067.06;;;15.36;100.00
41686;BME280;27370;42.764;23.432;2023-06-22T02:26:59;96058.63;;;15.30;100.00
41686;BME280;27370;42.764;23.432;2023-06-22T02:29:25;96055.63;;;15.09;100.00
41686;BME280;27370;42.764;23.432;2023-06-22T02:31:52;96065.25;;;14.97;100.00
41686;BME280;27370;42.764;23.432;2023-06-22T02:34:19;96062.66;;;14.90;100.00
41686;BME280;27370;42.764;23.432;2023-06-22T02:36:45;96067.84;;;14.84;100.00
41686;BME280;27370;42.764;23.432;2023-06-22T02:39:20;96075.41;;;14.77;100.00
41686;BME280;27370;42.764;23.432;2023-06-22T02:41:49;96077.72;;;14.78;100.00
41686;BME280;27370;42.764;23.432;2023-06-22T02:44:15;96072.72;;;14.93;100.00
41686;BME280;27370;42.764;23.432;2023-06-22T02:46:41;96066.78;;;14.98;100.00
41686;BME280;27370;42.764;23.432;2023-06-22T02:49:07;96082.03;;;15.12;100.00
41686;BME280;27370;42.764;23.432;2023-06-22T02:51:33;96080.16;;;15.09;100.00
41686;BME280;27370;42.764;23.432;2023-06-22T02:54:00;96083.31;;;15.07;100.00
41686;BME280;27370;42.764;23.432;2023-06-22T02:56:28;96082.38;;;14.97;100.00
41686;BME280;27370;42.764;23.432;2023-06-22T02:58:58;96081.94;;;14.99;100.00
41686;BME280;27370;42.764;23.432;2023-06-22T03:01:31;96091.31;;;14.98;100.00
41686;BME280;27370;42.764;23.432;2023-06-22T03:04:06;96090.63;;;14.94;100.00
41686;BME280;27370;42.764;23.432;2023-06-22T03:06:32;96087.16;;;15.10;100.00
41686;BME280;27370;42.764;23.432;2023-06-22T03:09:03;96097.84;;;15.20;100.00
41686;BME280;27370;42.764;23.432;2023-06-22T03:11:33;96094.59;;;15.25;100.00
41686;BME280;27370;42.764;23.432;2023-06-22T03:14:00;96100.75;;;15.29;100.00
41686;BME280;27370;42.764;23.432;2023-06-22T03:16:27;96105.72;;;15.51;100.00
41686;BME280;27370;42.764;23.432;2023-06-22T03:18:54;96101.28;;;15.57;100.00
41686;BME280;27370;42.764;23.432;2023-06-22T03:21:22;96097.72;;;15.60;100.00
41686;BME280;27370;42.764;23.432;2023-06-22T03:23:48;96102.59;;;15.69;100.00
41686;BME280;27370;42.764;23.432;2023-06-22T03:26:16;96104.22;;;15.66;100.00
41686;BME280;27370;42.764;23.432;2023-06-22T03:28:42;96104.03;;;15.73;100.00
41686;BME280;27370;42.764;23.432;2023-06-22T03:31:08;96088.00;;;15.75;100.00
41686;BME280;27370;42.764;23.432;2023-06-22T03:33:35;96101.81;;;15.84;100.00
41686;BME280;27370;42.764;23.432;2023-06-22T03:36:01;96095.84;;;15.89;100.00
41686;BME280;27370;42.764;23.432;2023-06-22T03:38:26;96091.53;;;16.05;100.00
41686;BME280;27370;42.764;23.432;2023-06-22T03:40:55;96098.88;;;16.08;100.00
41686;BME280;27370;42.764;23.432;2023-06-22T03:43:20;96098.72;;;15.99;100.00
41686;BME280;27370;42.764;23.432;2023-06-22T03:45:46;96090.81;;;15.88;100.00
41686;BME280;27370;42.764;23.432;2023-06-22T03:48:12;96093.78;;;15.93;100.00
41686;BME280;27370;42.764;23.432;2023-06-22T03:50:38;96100.88;;;15.91;100.00
41686;BME280;27370;42.764;23.432;2023-06-22T03:53:03;96112.56;;;15.91;100.00
41686;BME280;27370;42.764;23.432;2023-06-22T03:55:29;96118.03;;;15.91;100.00
41686;BME280;27370;42.764;23.432;2023-06-22T03:57:55;96112.91;;;15.93;100.00
41686;BME280;27370;42.764;23.432;2023-06-22T04:00:23;96114.84;;;16.09;100.00
41686;BME280;27370;42.764;23.432;2023-06-22T04:02:49;96106.88;;;16.15;100.00
41686;BME280;27370;42.764;23.432;2023-06-22T04:05:15;96099.56;;;16.12;100.00
41686;BME280;27370;42.764;23.432;2023-06-22T04:07:42;96106.56;;;16.13;100.00
41686;BME280;27370;42.764;23.432;2023-06-22T04:10:08;96114.88;;;16.22;100.00
41686;BME280;27370;42.764;23.432;2023-06-22T04:12:34;96112.22;;;16.35;100.00
41686;BME280;27370;42.764;23.432;2023-06-22T04:14:59;96110.72;;;16.46;100.00
41686;BME280;27370;42.764;23.432;2023-06-22T04:17:25;96109.41;;;16.67;100.00
41686;BME280;27370;42.764;23.432;2023-06-22T04:19:51;96102.09;;;16.77;100.00
41686;BME280;27370;42.764;23.432;2023-06-22T04:22:17;96094.22;;;16.79;100.00
41686;BME280;27370;42.764;23.432;2023-06-22T04:24:44;96087.13;;;16.94;100.00
41686;BME280;27370;42.764;23.432;2023-06-22T04:27:10;96085.94;;;16.95;100.00
41686;BME280;27370;42.764;23.432;2023-06-22T04:29:35;96086.38;;;17.06;100.00
41686;BME280;27370;42.764;23.432;2023-06-22T04:32:01;96080.38;;;17.11;100.00
41686;BME280;27370;42.764;23.432;2023-06-22T04:34:31;96072.59;;;17.10;100.00
41686;BME280;27370;42.764;23.432;2023-06-22T04:36:56;96092.97;;;17.22;100.00
41686;BME280;27370;42.764;23.432;2023-06-22T04:39:22;96082.88;;;17.19;100.00
41686;BME280;27370;42.764;23.432;2023-06-22T04:41:49;96079.16;;;17.38;100.00
41686;BME280;27370;42.764;23.432;2023-06-22T04:44:17;96082.22;;;17.53;100.00
41686;BME280;27370;42.764;23.432;2023-06-22T04:46:57;96068.97;;;17.77;100.00
41686;BME280;27370;42.764;23.432;2023-06-22T04:49:26;96071.81;;;18.08;100.00
41686;BME280;27370;42.764;23.432;2023-06-22T04:52:16;96073.78;;;18.07;100.00
41686;BME280;27370;42.764;23.432;2023-06-22T04:54:45;96077.31;;;18.29;100.00
41686;BME280;27370;42.764;23.432;2023-06-22T04:57:15;96078.41;;;18.32;100.00
41686;BME280;27370;42.764;23.432;2023-06-22T04:59:41;96073.47;;;18.40;100.00
41686;BME280;27370;42.764;23.432;2023-06-22T05:02:07;96081.28;;;18.50;100.00
41686;BME280;27370;42.764;23.432;2023-06-22T05:04:33;96084.44;;;18.61;100.00
41686;BME280;27370;42.764;23.432;2023-06-22T05:07:01;96070.88;;;18.80;100.00
41686;BME280;27370;42.764;23.432;2023-06-22T05:09:29;96067.09;;;18.86;100.00
41686;BME280;27370;42.764;23.432;2023-06-22T05:11:55;96046.06;;;18.92;100.00
41686;BME280;27370;42.764;23.432;2023-06-22T05:14:22;96052.81;;;18.70;100.00
41686;BME280;27370;42.764;23.432;2023-06-22T05:16:48;96065.00;;;18.69;100.00
41686;BME280;27370;42.764;23.432;2023-06-22T05:19:15;96058.78;;;18.77;100.00
41686;BME280;27370;42.764;23.432;2023-06-22T05:21:40;96063.66;;;19.04;100.00
41686;BME280;27370;42.764;23.432;2023-06-22T05:24:06;96054.91;;;19.27;100.00
41686;BME280;27370;42.764;23.432;2023-06-22T05:26:33;96063.03;;;19.40;100.00
41686;BME280;27370;42.764;23.432;2023-06-22T05:29:00;96056.31;;;19.41;100.00
41686;BME280;27370;42.764;23.432;2023-06-22T05:31:27;96056.00;;;19.70;100.00
41686;BME280;27370;42.764;23.432;2023-06-22T05:33:53;96067.19;;;19.94;100.00
41686;BME280;27370;42.764;23.432;2023-06-22T05:36:20;96060.78;;;20.15;100.00
41686;BME280;27370;42.764;23.432;2023-06-22T05:38:47;96051.47;;;20.40;100.00
41686;BME280;27370;42.764;23.432;2023-06-22T05:41:12;96060.34;;;20.44;100.00
41686;BME280;27370;42.764;23.432;2023-06-22T05:43:39;96062.03;;;20.42;100.00
41686;BME280;27370;42.764;23.432;2023-06-22T05:46:05;96062.47;;;20.49;100.00
41686;BME280;27370;42.764;23.432;2023-06-22T05:48:30;96048.34;;;20.75;100.00
41686;BME280;27370;42.764;23.432;2023-06-22T05:50:56;96046.44;;;20.99;100.00
41686;BME280;27370;42.764;23.432;2023-06-22T05:53:22;96045.03;;;21.04;100.00
41686;BME280;27370;42.764;23.432;2023-06-22T05:55:48;96052.50;;;21.31;100.00
41686;BME280;27370;42.764;23.432;2023-06-22T05:58:14;96041.25;;;21.44;100.00
41686;BME280;27370;42.764;23.432;2023-06-22T06:00:41;96037.22;;;21.54;100.00
41686;BME280;27370;42.764;23.432;2023-06-22T06:03:08;96041.63;;;21.60;100.00
41686;BME280;27370;42.764;23.432;2023-06-22T06:05:34;96039.81;;;21.57;100.00
41686;BME280;27370;42.764;23.432;2023-06-22T06:08:02;96025.84;;;21.61;100.00
41686;BME280;27370;42.764;23.432;2023-06-22T06:10:28;96027.16;;;21.51;100.00
41686;BME280;27370;42.764;23.432;2023-06-22T06:12:55;96036.00;;;21.79;100.00
41686;BME280;27370;42.764;23.432;2023-06-22T06:15:21;96039.88;;;21.96;100.00
41686;BME280;27370;42.764;23.432;2023-06-22T06:17:48;96047.00;;;22.02;100.00
41686;BME280;27370;42.764;23.432;2023-06-22T06:20:15;96046.63;;;22.19;100.00
41686;BME280;27370;42.764;23.432;2023-06-22T06:22:41;96041.03;;;22.28;100.00
41686;BME280;27370;42.764;23.432;2023-06-22T06:25:08;96037.41;;;22.37;100.00
41686;BME280;27370;42.764;23.432;2023-06-22T06:27:34;96029.13;;;22.22;100.00
41686;BME280;27370;42.764;23.432;2023-06-22T06:30:00;96039.78;;;22.29;100.00
41686;BME280;27370;42.764;23.432;2023-06-22T06:32:25;96042.34;;;22.33;100.00
41686;BME280;27370;42.764;23.432;2023-06-22T06:34:51;96042.34;;;22.33;100.00
41686;BME280;27370;42.764;23.432;2023-06-22T06:37:17;96038.00;;;22.55;100.00
41686;BME280;27370;42.764;23.432;2023-06-22T06:39:44;96033.66;;;22.93;100.00
41686;BME280;27370;42.764;23.432;2023-06-22T06:42:10;96026.31;;;23.19;100.00
41686;BME280;27370;42.764;23.432;2023-06-22T06:44:36;96027.38;;;23.42;100.00
41686;BME280;27370;42.764;23.432;2023-06-22T06:47:04;96024.22;;;23.49;100.00
41686;BME280;27370;42.764;23.432;2023-06-22T06:49:30;96012.53;;;23.40;100.00
41686;BME280;27370;42.764;23.432;2023-06-22T06:51:56;96016.53;;;23.39;100.00
41686;BME280;27370;42.764;23.432;2023-06-22T06:54:21;96008.75;;;23.22;100.00
41686;BME280;27370;42.764;23.432;2023-06-22T06:56:47;96009.44;;;23.52;100.00
41686;BME280;27370;42.764;23.432;2023-06-22T06:59:14;96013.38;;;23.81;100.00
41686;BME280;27370;42.764;23.432;2023-06-22T07:01:41;96000.03;;;23.79;100.00
41686;BME280;27370;42.764;23.432;2023-06-22T07:04:07;96004.91;;;23.90;100.00
41686;BME280;27370;42.764;23.432;2023-06-22T07:06:32;96003.81;;;23.62;100.00
41686;BME280;27370;42.764;23.432;2023-06-22T07:09:00;96002.78;;;23.44;100.00
41686;BME280;27370;42.764;23.432;2023-06-22T07:11:27;96011.56;;;23.43;100.00
41686;BME280;27370;42.764;23.432;2023-06-22T07:13:53;96005.34;;;23.48;100.00
41686;BME280;27370;42.764;23.432;2023-06-22T07:16:18;96012.41;;;23.49;100.00
41686;BME280;27370;42.764;23.432;2023-06-22T07:18:44;96004.38;;;23.66;100.00
41686;BME280;27370;42.764;23.432;2023-06-22T07:21:09;95996.97;;;23.57;100.00
41686;BME280;27370;42.764;23.432;2023-06-22T07:23:35;96010.25;;;23.73;100.00
41686;BME280;27370;42.764;23.432;2023-06-22T07:26:00;96011.00;;;23.74;100.00
41686;BME280;27370;42.764;23.432;2023-06-22T07:28:31;96004.22;;;23.95;100.00
41686;BME280;27370;42.764;23.432;2023-06-22T07:31:03;96008.56;;;24.22;100.00
41686;BME280;27370;42.764;23.432;2023-06-22T07:33:29;96013.75;;;24.35;100.00
41686;BME280;27370;42.764;23.432;2023-06-22T07:35:55;96016.97;;;24.07;100.00
41686;BME280;27370;42.764;23.432;2023-06-22T07:38:20;96015.06;;;24.19;100.00
41686;BME280;27370;42.764;23.432;2023-06-22T07:40:47;95995.47;;;24.43;100.00
41686;BME280;27370;42.764;23.432;2023-06-22T07:43:12;96003.94;;;24.60;100.00
41686;BME280;27370;42.764;23.432;2023-06-22T07:45:38;96000.19;;;24.63;100.00
41686;BME280;27370;42.764;23.432;2023-06-22T07:48:09;95996.81;;;24.79;100.00
41686;BME280;27370;42.764;23.432;2023-06-22T07:50:34;95991.16;;;24.42;100.00
41686;BME280;27370;42.764;23.432;2023-06-22T07:53:00;95990.03;;;24.54;100.00
41686;BME280;27370;42.764;23.432;2023-06-22T07:55:25;95996.06;;;24.53;100.00
41686;BME280;27370;42.764;23.432;2023-06-22T07:57:51;95990.81;;;24.86;100.00
41686;BME280;27370;42.764;23.432;2023-06-22T08:00:17;95994.28;;;25.07;100.00
41686;BME280;27370;42.764;23.432;2023-06-22T08:02:45;95991.13;;;25.25;100.00
41686;BME280;27370;42.764;23.432;2023-06-22T08:05:11;95988.72;;;25.39;100.00
41686;BME280;27370;42.764;23.432;2023-06-22T08:07:37;95984.19;;;25.41;100.00
41686;BME280;27370;42.764;23.432;2023-06-22T08:10:04;95983.69;;;25.43;100.00
41686;BME280;27370;42.764;23.432;2023-06-22T08:12:29;95976.69;;;25.53;100.00
41686;BME280;27370;42.764;23.432;2023-06-22T08:14:55;95974.94;;;25.55;100.00
41686;BME280;27370;42.764;23.432;2023-06-22T08:17:24;95971.97;;;25.64;100.00
41686;BME280;27370;42.764;23.432;2023-06-22T08:19:50;95965.31;;;25.99;100.00
41686;BME280;27370;42.764;23.432;2023-06-22T08:22:16;95962.34;;;26.25;100.00
41686;BME280;27370;42.764;23.432;2023-06-22T08:24:42;95971.03;;;26.49;100.00
41686;BME280;27370;42.764;23.432;2023-06-22T08:27:07;95967.72;;;26.68;100.00
41686;BME280;27370;42.764;23.432;2023-06-22T08:29:40;95973.81;;;26.83;100.00
41686;BME280;27370;42.764;23.432;2023-06-22T08:32:11;95971.78;;;26.67;100.00
41686;BME280;27370;42.764;23.432;2023-06-22T08:34:37;95975.06;;;26.54;100.00
41686;BME280;27370;42.764;23.432;2023-06-22T08:37:08;95980.63;;;26.60;100.00
41686;BME280;27370;42.764;23.432;2023-06-22T08:39:34;95981.66;;;26.79;100.00
41686;BME280;27370;42.764;23.432;2023-06-22T08:42:00;95965.72;;;26.63;100.00
41686;BME280;27370;42.764;23.432;2023-06-22T08:44:25;95964.47;;;26.52;100.00
41686;BME280;27370;42.764;23.432;2023-06-22T08:46:51;95970.19;;;26.27;100.00
41686;BME280;27370;42.764;23.432;2023-06-22T08:49:16;95963.16;;;26.37;100.00
41686;BME280;27370;42.764;23.432;2023-06-22T08:51:42;95963.88;;;26.32;100.00
41686;BME280;27370;42.764;23.432;2023-06-22T08:54:09;95957.38;;;26.51;100.00
41686;BME280;27370;42.764;23.432;2023-06-22T08:56:35;95953.34;;;26.75;100.00
41686;BME280;27370;42.764;23.432;2023-06-22T08:59:01;95955.09;;;26.61;100.00
41686;BME280;27370;42.764;23.432;2023-06-22T09:01:27;95953.06;;;26.39;100.00
41686;BME280;27370;42.764;23.432;2023-06-22T09:03:52;95937.16;;;26.45;100.00
41686;BME280;27370;42.764;23.432;2023-06-22T09:06:23;95950.34;;;26.73;100.00
41686;BME280;27370;42.764;23.432;2023-06-22T09:08:49;95950.84;;;26.99;100.00
41686;BME280;27370;42.764;23.432;2023-06-22T09:11:15;95949.81;;;26.97;100.00
41686;BME280;27370;42.764;23.432;2023-06-22T09:13:41;95949.53;;;27.28;100.00
41686;BME280;27370;42.764;23.432;2023-06-22T09:16:06;95938.38;;;27.45;100.00
41686;BME280;27370;42.764;23.432;2023-06-22T09:18:34;95933.00;;;27.69;100.00
41686;BME280;27370;42.764;23.432;2023-06-22T09:21:01;95937.72;;;27.91;100.00
41686;BME280;27370;42.764;23.432;2023-06-22T09:23:26;95938.41;;;28.03;100.00
41686;BME280;27370;42.764;23.432;2023-06-22T09:25:52;95950.25;;;28.15;100.00
41686;BME280;27370;42.764;23.432;2023-06-22T09:28:17;95941.09;;;28.20;100.00
41686;BME280;27370;42.764;23.432;2023-06-22T09:30:43;95948.91;;;28.32;100.00
41686;BME280;27370;42.764;23.432;2023-06-22T09:33:12;95936.44;;;28.39;100.00
41686;BME280;27370;42.764;23.432;2023-06-22T09:35:37;95935.34;;;28.53;100.00
41686;BME280;27370;42.764;23.432;2023-06-22T09:38:03;95944.97;;;28.52;100.00
41686;BME280;27370;42.764;23.432;2023-06-22T09:40:28;95936.50;;;28.33;100.00
41686;BME280;27370;42.764;23.432;2023-06-22T09:42:54;95938.25;;;28.36;100.00
41686;BME280;27370;42.764;23.432;2023-06-22T09:45:19;95930.31;;;28.46;100.00
41686;BME280;27370;42.764;23.432;2023-06-22T09:47:45;95926.66;;;28.62;100.00
41686;BME280;27370;42.764;23.432;2023-06-22T09:50:11;95922.66;;;28.88;100.00
41686;BME280;27370;42.764;23.432;2023-06-22T09:52:36;95924.25;;;29.08;100.00
41686;BME280;27370;42.764;23.432;2023-06-22T09:55:02;95923.34;;;29.24;100.00
41686;BME280;27370;42.764;23.432;2023-06-22T09:57:29;95914.84;;;29.11;100.00
41686;BME280;27370;42.764;23.432;2023-06-22T09:59:55;95920.38;;;29.16;100.00
41686;BME280;27370;42.764;23.432;2023-06-22T10:02:21;95906.31;;;29.03;100.00
41686;BME280;27370;42.764;23.432;2023-06-22T10:04:47;95910.03;;;29.36;100.00
41686;BME280;27370;42.764;23.432;2023-06-22T10:07:13;95904.75;;;29.56;100.00
41686;BME280;27370;42.764;23.432;2023-06-22T10:09:38;95904.00;;;29.56;100.00
41686;BME280;27370;42.764;23.432;2023-06-22T10:12:04;95909.91;;;29.71;100.00
41686;BME280;27370;42.764;23.432;2023-06-22T10:14:30;95904.16;;;29.82;100.00
41686;BME280;27370;42.764;23.432;2023-06-22T10:16:55;95899.19;;;29.94;100.00
41686;BME280;27370;42.764;23.432;2023-06-22T10:19:21;95901.53;;;29.90;100.00
41686;BME280;27370;42.764;23.432;2023-06-22T10:21:47;95906.28;;;29.95;100.00
41686;BME280;27370;42.764;23.432;2023-06-22T10:24:12;95897.09;;;30.19;100.00
41686;BME280;27370;42.764;23.432;2023-06-22T10:26:38;95897.78;;;30.06;100.00
41686;BME280;27370;42.764;23.432;2023-06-22T10:29:03;95900.44;;;30.17;100.00
41686;BME280;27370;42.764;23.432;2023-06-22T10:31:29;95899.66;;;30.17;100.00
41686;BME280;27370;42.764;23.432;2023-06-22T10:33:55;95891.88;;;30.29;100.00
41686;BME280;27370;42.764;23.432;2023-06-22T10:36:21;95892.47;;;30.22;100.00
41686;BME280;27370;42.764;23.432;2023-06-22T10:38:47;95889.91;;;30.24;100.00
41686;BME280;27370;42.764;23.432;2023-06-22T10:41:13;95892.19;;;30.25;100.00
41686;BME280;27370;42.764;23.432;2023-06-22T10:43:39;95878.53;;;30.22;100.00
41686;BME280;27370;42.764;23.432;2023-06-22T10:46:04;95882.72;;;30.28;100.00
41686;BME280;27370;42.764;23.432;2023-06-22T10:48:30;95885.88;;;30.57;100.00
41686;BME280;27370;42.764;23.432;2023-06-22T10:50:55;95877.53;;;30.70;100.00
41686;BME280;27370;42.764;23.432;2023-06-22T10:53:21;95884.41;;;30.69;100.00
41686;BME280;27370;42.764;23.432;2023-06-22T10:55:47;95877.13;;;30.92;100.00
41686;BME280;27370;42.764;23.432;2023-06-22T10:58:12;95877.91;;;31.06;100.00
41686;BME280;27370;42.764;23.432;2023-06-22T11:00:38;95880.47;;;30.91;100.00
41686;BME280;27370;42.764;23.432;2023-06-22T11:03:04;95879.94;;;30.79;100.00
41686;BME280;27370;42.764;23.432;2023-06-22T11:05:29;95880.13;;;30.49;100.00
41686;BME280;27370;42.764;23.432;2023-06-22T11:07:55;95882.06;;;30.22;100.00
41686;BME280;27370;42.764;23.432;2023-06-22T11:10:21;95875.06;;;30.15;100.00
41686;BME280;27370;42.764;23.432;2023-06-22T11:12:46;95882.59;;;30.02;100.00
41686;BME280;27370;42.764;23.432;2023-06-22T11:15:12;95881.25;;;30.08;100.00
41686;BME280;27370;42.764;23.432;2023-06-22T11:17:38;95878.91;;;29.94;100.00
41686;BME280;27370;42.764;23.432;2023-06-22T11:20:04;95875.44;;;29.87;100.00
41686;BME280;27370;42.764;23.432;2023-06-22T11:22:39;95877.00;;;29.83;100.00
41686;BME280;27370;42.764;23.432;2023-06-22T11:25:05;95876.97;;;29.64;100.00
41686;BME280;27370;42.764;23.432;2023-06-22T11:27:31;95866.72;;;29.53;100.00
41686;BME280;27370;42.764;23.432;2023-06-22T11:29:57;95860.41;;;29.72;100.00
41686;BME280;27370;42.764;23.432;2023-06-22T11:32:23;95857.53;;;30.15;100.00
41686;BME280;27370;42.764;23.432;2023-06-22T11:34:48;95845.06;;;30.67;100.00
41686;BME280;27370;42.764;23.432;2023-06-22T11:37:14;95858.09;;;30.91;100.00
41686;BME280;27370;42.764;23.432;2023-06-22T11:39:41;95854.22;;;30.94;100.00
41686;BME280;27370;42.764;23.432;2023-06-22T11:42:07;95860.78;;;30.83;100.00
41686;BME280;27370;42.764;23.432;2023-06-22T11:44:33;95859.28;;;30.82;100.00
41686;BME280;27370;42.764;23.432;2023-06-22T11:46:59;95866.16;;;30.81;100.00
41686;BME280;27370;42.764;23.432;2023-06-22T11:49:26;95868.44;;;30.32;100.00
41686;BME280;27370;42.764;23.432;2023-06-22T11:51:52;95869.75;;;29.74;100.00
41686;BME280;27370;42.764;23.432;2023-06-22T11:54:18;95866.66;;;29.97;100.00
41686;BME280;27370;42.764;23.432;2023-06-22T11:56:44;95867.19;;;29.57;100.00
41686;BME280;27370;42.764;23.432;2023-06-22T11:59:09;95861.53;;;29.63;100.00
41686;BME280;27370;42.764;23.432;2023-06-22T12:01:35;95863.81;;;29.40;100.00
41686;BME280;27370;42.764;23.432;2023-06-22T12:04:01;95864.94;;;29.32;100.00
41686;BME280;27370;42.764;23.432;2023-06-22T12:06:38;95863.84;;;28.91;100.00
41686;BME280;27370;42.764;23.432;2023-06-22T12:09:06;95851.81;;;28.72;100.00
41686;BME280;27370;42.764;23.432;2023-06-22T12:11:32;95854.50;;;28.89;100.00
41686;BME280;27370;42.764;23.432;2023-06-22T12:13:57;95853.41;;;28.67;100.00
41686;BME280;27370;42.764;23.432;2023-06-22T12:16:27;95862.34;;;28.60;100.00
41686;BME280;27370;42.764;23.432;2023-06-22T12:18:53;95864.22;;;28.47;100.00
41686;BME280;27370;42.764;23.432;2023-06-22T12:21:19;95864.63;;;28.26;100.00
41686;BME280;27370;42.764;23.432;2023-06-22T12:23:44;95878.13;;;28.11;100.00
41686;BME280;27370;42.764;23.432;2023-06-22T12:26:10;95875.31;;;27.70;100.00
41686;BME280;27370;42.764;23.432;2023-06-22T12:28:36;95879.81;;;27.84;100.00
41686;BME280;27370;42.764;23.432;2023-06-22T12:31:01;95893.72;;;27.09;100.00
41686;BME280;27370;42.764;23.432;2023-06-22T12:33:27;95886.13;;;26.93;100.00
41686;BME280;27370;42.764;23.432;2023-06-22T12:35:53;95886.66;;;26.80;100.00
41686;BME280;27370;42.764;23.432;2023-06-22T12:38:19;95884.66;;;26.64;100.00
41686;BME280;27370;42.764;23.432;2023-06-22T12:40:44;95893.00;;;26.53;100.00
41686;BME280;27370;42.764;23.432;2023-06-22T12:43:12;95885.41;;;26.76;100.00
41686;BME280;27370;42.764;23.432;2023-06-22T12:45:38;95878.06;;;26.90;100.00
41686;BME280;27370;42.764;23.432;2023-06-22T12:48:04;95902.28;;;27.23;100.00